sensor_id;sensor_type;location;lat;lon;timestamp;pressure;altitude;pressure_sealevel;temperature;humidity
29383;BME280;16365;51.598;7.668;2023-05-11T00:00:35;100700.13;;;20.72;52.38
29383;BME280;16365;51.598;7.668;2023-05-11T00:03:02;100699.31;;;20.71;52.08
29383;BME280;16365;51.598;7.668;2023-05-11T00:05:29;100700.53;;;20.70;52.11
29383;BME280;16365;51.598;7.668;2023-05-11T00:07:55;100703.34;;;20.70;52.20
29383;BME280;16365;51.598;7.668;2023-05-11T00:10:22;100695.25;;;20.69;52.42
29383;BME280;16365;51.598;7.668;2023-05-11T00:12:49;100699.72;;;20.70;52.08
29383;BME280;16365;51.598;7.668;2023-05-11T00:15:15;100701.72;;;20.69;52.38
29383;BME280;16365;51.598;7.668;2023-05-11T00:17:42;100700.50;;;20.67;52.36
29383;BME280;16365;51.598;7.668;2023-05-11T00:20:09;100695.69;;;20.67;52.33
29383;BME280;16365;51.598;7.668;2023-05-11T00:22:36;100696.88;;;20.66;52.36
29383;BME280;16365;51.598;7.668;2023-05-11T00:25:09;100699.69;;;20.66;52.51
29383;BME280;16365;51.598;7.668;2023-05-11T00:27:36;100696.88;;;20.66;52.40
29383;BME280;16365;51.598;7.668;2023-05-11T00:30:02;100696.47;;;20.68;52.34
29383;BME280;16365;51.598;7.668;2023-05-11T00:32:29;100693.66;;;20.68;52.34
29383;BME280;16365;51.598;7.668;2023-05-11T00:34:56;100695.69;;;20.67;52.47
29383;BME280;16365;51.598;7.668;2023-05-11T00:37:22;100694.06;;;20.66;52.37
29383;BME280;16365;51.598;7.668;2023-05-11T00:39:51;100696.88;;;20.66;52.47
29383;BME280;16365;51.598;7.668;2023-05-11T00:42:18;100693.25;;;20.66;52.27
29383;BME280;16365;51.598;7.668;2023-05-11T00:44:44;100687.19;;;20.64;52.23
29383;BME280;16365;51.598;7.668;2023-05-11T00:47:11;100682.38;;;20.64;52.48
29383;BME280;16365;51.598;7.668;2023-05-11T00:49:38;100688.00;;;20.64;52.32
29383;BME280;16365;51.598;7.668;2023-05-11T00:52:05;100690.03;;;20.64;52.38
29383;BME280;16365;51.598;7.668;2023-05-11T00:54:32;100692.03;;;20.63;52.52
29383;BME280;16365;51.598;7.668;2023-05-11T00:56:58;100682.38;;;20.64;52.43
29383;BME280;16365;51.598;7.668;2023-05-11T00:59:26;100685.19;;;20.64;52.45
29383;BME280;16365;51.598;7.668;2023-05-11T01:01:52;100685.19;;;20.64;52.37
29383;BME280;16365;51.598;7.668;2023-05-11T01:04:19;100688.84;;;20.65;52.50
29383;BME280;16365;51.598;7.668;2023-05-11T01:09:43;100684.41;;;20.60;52.66
29383;BME280;16365;51.598;7.668;2023-05-11T01:12:39;100691.63;;;20.61;52.66
29383;BME280;16365;51.598;7.668;2023-05-11T01:15:17;100691.22;;;20.63;52.11
29383;BME280;16365;51.598;7.668;2023-05-11T01:17:55;100689.59;;;20.58;52.28
29383;BME280;16365;51.598;7.668;2023-05-11T01:20:25;100690.00;;;20.57;52.08
29383;BME280;16365;51.598;7.668;2023-05-11T01:23:01;100687.16;;;20.53;52.48
29383;BME280;16365;51.598;7.668;2023-05-11T01:26:07;100689.59;;;20.51;52.40
29383;BME280;16365;51.598;7.668;2023-05-11T01:28:50;100689.97;;;20.49;52.58
29383;BME280;16365;51.598;7.668;2023-05-11T01:31:18;100687.94;;;20.50;52.55
29383;BME280;16365;51.598;7.668;2023-05-11T01:33:53;100690.38;;;20.48;52.57
29383;BME280;16365;51.598;7.668;2023-05-11T01:36:25;100693.19;;;20.48;52.40
29383;BME280;16365;51.598;7.668;2023-05-11T01:38:57;100689.94;;;20.46;52.27
29383;BME280;16365;51.598;7.668;2023-05-11T01:41:27;100697.59;;;20.45;52.37
29383;BME280;16365;51.598;7.668;2023-05-11T01:43:57;100703.22;;;20.45;52.53
29383;BME280;16365;51.598;7.668;2023-05-11T01:46:26;100701.22;;;20.46;52.32
29383;BME280;16365;51.598;7.668;2023-05-11T01:48:57;100708.03;;;20.45;52.49
29383;BME280;16365;51.598;7.668;2023-05-11T01:51:29;100706.03;;;20.45;52.66
29383;BME280;16365;51.598;7.668;2023-05-11T01:53:58;100708.84;;;20.45;52.23
29383;BME280;16365;51.598;7.668;2023-05-11T01:56:26;100701.22;;;20.46;52.60
29383;BME280;16365;51.598;7.668;2023-05-11T01:58:55;100711.66;;;20.45;52.44
29383;BME280;16365;51.598;7.668;2023-05-11T02:01:23;100711.66;;;20.45;52.41
29383;BME280;16365;51.598;7.668;2023-05-11T02:03:50;100708.84;;;20.45;52.44
29383;BME280;16365;51.598;7.668;2023-05-11T02:06:19;100719.28;;;20.45;52.26
29383;BME280;16365;51.598;7.668;2023-05-11T02:08:49;100710.03;;;20.44;52.40
29383;BME280;16365;51.598;7.668;2023-05-11T02:11:15;100710.84;;;20.45;52.38
29383;BME280;16365;51.598;7.668;2023-05-11T02:13:44;100717.31;;;20.45;52.83
29383;BME280;16365;51.598;7.668;2023-05-11T02:16:11;100716.94;;;20.47;52.95
29383;BME280;16365;51.598;7.668;2023-05-11T02:18:41;100721.75;;;20.50;52.18
29383;BME280;16365;51.598;7.668;2023-05-11T02:21:08;100726.22;;;20.51;52.42
29383;BME280;16365;51.598;7.668;2023-05-11T02:23:37;100726.19;;;20.54;52.04
29383;BME280;16365;51.598;7.668;2023-05-11T02:26:05;100724.56;;;20.50;52.06
29383;BME280;16365;51.598;7.668;2023-05-11T02:28:33;100721.72;;;20.46;52.20
29383;BME280;16365;51.598;7.668;2023-05-11T02:31:04;100717.31;;;20.45;52.48
29383;BME280;16365;51.598;7.668;2023-05-11T02:33:38;100721.69;;;20.43;52.39
29383;BME280;16365;51.598;7.668;2023-05-11T02:36:09;100718.88;;;20.43;52.33
29383;BME280;16365;51.598;7.668;2023-05-11T02:38:38;100713.25;;;20.43;52.49
29383;BME280;16365;51.598;7.668;2023-05-11T02:41:10;100720.09;;;20.42;52.63
29383;BME280;16365;51.598;7.668;2023-05-11T02:43:39;100718.88;;;20.43;52.42
29383;BME280;16365;51.598;7.668;2023-05-11T02:46:16;100712.03;;;20.40;52.58
29383;BME280;16365;51.598;7.668;2023-05-11T02:48:49;100721.31;;;20.41;52.66
29383;BME280;16365;51.598;7.668;2023-05-11T02:51:21;100724.13;;;20.41;52.57
29383;BME280;16365;51.598;7.668;2023-05-11T02:53:50;100721.31;;;20.41;52.36
29383;BME280;16365;51.598;7.668;2023-05-11T02:56:18;100722.91;;;20.42;52.18
29383;BME280;16365;51.598;7.668;2023-05-11T02:58:45;100721.31;;;20.41;52.27
29383;BME280;16365;51.598;7.668;2023-05-11T03:01:12;100716.03;;;20.39;52.33
29383;BME280;16365;51.598;7.668;2023-05-11T03:03:39;100725.69;;;20.38;52.33
29383;BME280;16365;51.598;7.668;2023-05-11T03:06:06;100728.53;;;20.38;52.44
29383;BME280;16365;51.598;7.668;2023-05-11T03:08:33;100716.44;;;20.38;52.47
29383;BME280;16365;51.598;7.668;2023-05-11T03:11:01;100722.09;;;20.38;52.54
29383;BME280;16365;51.598;7.668;2023-05-11T03:13:29;100722.88;;;20.38;52.18
29383;BME280;16365;51.598;7.668;2023-05-11T03:15:56;100717.25;;;20.38;52.07
29383;BME280;16365;51.598;7.668;2023-05-11T03:18:24;100727.31;;;20.36;52.10
29383;BME280;16365;51.598;7.668;2023-05-11T03:20:51;100723.66;;;20.32;51.86
29383;BME280;16365;51.598;7.668;2023-05-11T03:23:18;100718.41;;;20.26;51.93
29383;BME280;16365;51.598;7.668;2023-05-11T03:25:45;100721.59;;;20.21;52.04
29383;BME280;16365;51.598;7.668;2023-05-11T03:28:13;100720.78;;;20.17;52.31
29383;BME280;16365;51.598;7.668;2023-05-11T03:30:42;100716.31;;;20.13;52.19
29383;BME280;16365;51.598;7.668;2023-05-11T03:33:12;100713.88;;;20.11;52.08
29383;BME280;16365;51.598;7.668;2023-05-11T03:35:40;100721.53;;;20.07;52.25
29383;BME280;16365;51.598;7.668;2023-05-11T03:38:10;100719.47;;;20.04;52.38
29383;BME280;16365;51.598;7.668;2023-05-11T03:40:40;100725.50;;;20.02;52.43
29383;BME280;16365;51.598;7.668;2023-05-11T03:43:10;100728.31;;;20.02;52.54
29383;BME280;16365;51.598;7.668;2023-05-11T03:48:07;100722.25;;;20.00;52.43
29383;BME280;16365;51.598;7.668;2023-05-11T03:53:01;100720.69;;;20.03;52.47
29383;BME280;16365;51.598;7.668;2023-05-11T03:55:28;100715.06;;;20.03;52.35
29383;BME280;16365;51.598;7.668;2023-05-11T04:00:21;100716.66;;;20.04;52.66
29383;BME280;16365;51.598;7.668;2023-05-11T04:02:47;100718.69;;;20.03;52.39
29383;BME280;16365;51.598;7.668;2023-05-11T04:05:14;100713.03;;;20.03;52.37
29383;BME280;16365;51.598;7.668;2023-05-11T04:07:41;100721.09;;;20.05;52.40
29383;BME280;16365;51.598;7.668;2023-05-11T04:10:09;100717.47;;;20.05;52.24
29383;BME280;16365;51.598;7.668;2023-05-11T04:12:35;100719.47;;;20.04;52.17
29383;BME280;16365;51.598;7.668;2023-05-11T04:17:29;100714.22;;;19.99;51.87
29383;BME280;16365;51.598;7.668;2023-05-11T04:19:56;100718.63;;;19.96;52.12
29383;BME280;16365;51.598;7.668;2023-05-11T04:22:22;100723.44;;;19.92;52.41
29383;BME280;16365;51.598;7.668;2023-05-11T04:24:48;100728.63;;;19.90;52.46
29383;BME280;16365;51.598;7.668;2023-05-11T04:27:15;100727.81;;;19.90;52.41
29383;BME280;16365;51.598;7.668;2023-05-11T04:29:42;100724.22;;;19.89;52.67
29383;BME280;16365;51.598;7.668;2023-05-11T04:32:10;100731.44;;;19.90;52.60
29383;BME280;16365;51.598;7.668;2023-05-11T04:34:36;100727.81;;;19.90;52.27
29383;BME280;16365;51.598;7.668;2023-05-11T04:37:03;100735.06;;;19.91;52.37
29383;BME280;16365;51.598;7.668;2023-05-11T04:39:33;100730.25;;;19.88;52.56
29383;BME280;16365;51.598;7.668;2023-05-11T04:41:59;100737.88;;;19.87;52.53
29383;BME280;16365;51.598;7.668;2023-05-11T04:44:27;100734.63;;;19.85;52.37
29383;BME280;16365;51.598;7.668;2023-05-11T04:46:55;100729.41;;;19.84;52.36
29383;BME280;16365;51.598;7.668;2023-05-11T04:49:23;100732.56;;;19.82;52.26
29383;BME280;16365;51.598;7.668;2023-05-11T04:51:50;100735.38;;;19.79;52.49
29383;BME280;16365;51.598;7.668;2023-05-11T04:54:16;100745.84;;;19.78;52.69
29383;BME280;16365;51.598;7.668;2023-05-11T04:56:43;100734.94;;;19.76;52.59
29383;BME280;16365;51.598;7.668;2023-05-11T04:59:09;100739.41;;;19.77;52.67
29383;BME280;16365;51.598;7.668;2023-05-11T05:01:35;100741.38;;;19.77;52.74
29383;BME280;16365;51.598;7.668;2023-05-11T05:04:02;100732.13;;;19.76;52.72
29383;BME280;16365;51.598;7.668;2023-05-11T05:06:29;100737.75;;;19.76;52.86
29383;BME280;16365;51.598;7.668;2023-05-11T05:08:55;100735.75;;;19.77;52.74
29383;BME280;16365;51.598;7.668;2023-05-11T05:11:22;100734.94;;;19.76;52.66
29383;BME280;16365;51.598;7.668;2023-05-11T05:13:49;100725.34;;;19.77;52.70
29383;BME280;16365;51.598;7.668;2023-05-11T05:16:16;100724.13;;;19.79;53.04
29383;BME280;16365;51.598;7.668;2023-05-11T05:18:42;100731.38;;;19.80;52.84
29383;BME280;16365;51.598;7.668;2023-05-11T05:21:09;100735.78;;;19.81;52.90
29383;BME280;16365;51.598;7.668;2023-05-11T05:23:36;100732.56;;;19.82;52.83
29383;BME280;16365;51.598;7.668;2023-05-11T05:26:02;100738.63;;;19.84;52.71
29383;BME280;16365;51.598;7.668;2023-05-11T05:28:29;100735.81;;;19.84;52.71
29383;BME280;16365;51.598;7.668;2023-05-11T05:30:56;100745.47;;;19.87;52.97
29383;BME280;16365;51.598;7.668;2023-05-11T05:33:23;100738.69;;;19.88;52.86
29383;BME280;16365;51.598;7.668;2023-05-11T05:35:49;100736.28;;;19.90;52.87
29383;BME280;16365;51.598;7.668;2023-05-11T05:38:16;100743.94;;;19.93;52.78
29383;BME280;16365;51.598;7.668;2023-05-11T05:40:43;100747.16;;;19.95;52.79
29383;BME280;16365;51.598;7.668;2023-05-11T05:43:09;100752.38;;;19.96;52.97
29383;BME280;16365;51.598;7.668;2023-05-11T05:45:36;100754.81;;;19.98;52.84
29383;BME280;16365;51.598;7.668;2023-05-11T05:48:03;100758.03;;;20.00;52.92
29383;BME280;16365;51.598;7.668;2023-05-11T05:50:31;100764.50;;;20.04;52.97
29383;BME280;16365;51.598;7.668;2023-05-11T05:52:58;100768.56;;;20.07;53.01
29383;BME280;16365;51.598;7.668;2023-05-11T05:55:26;100778.22;;;20.09;53.26
29383;BME280;16365;51.598;7.668;2023-05-11T05:57:53;100779.47;;;20.15;52.87
29383;BME280;16365;51.598;7.668;2023-05-11T06:00:19;100777.44;;;20.16;52.82
29383;BME280;16365;51.598;7.668;2023-05-11T06:02:46;100785.13;;;20.19;53.03
29383;BME280;16365;51.598;7.668;2023-05-11T06:05:12;100787.94;;;20.19;53.05
29383;BME280;16365;51.598;7.668;2023-05-11T06:07:41;100786.34;;;20.21;52.90
29383;BME280;16365;51.598;7.668;2023-05-11T06:10:11;100786.75;;;20.23;52.80
29383;BME280;16365;51.598;7.668;2023-05-11T06:12:39;100787.16;;;20.25;52.70
29383;BME280;16365;51.598;7.668;2023-05-11T06:15:06;100784.34;;;20.25;52.83
29383;BME280;16365;51.598;7.668;2023-05-11T06:17:33;100782.78;;;20.28;52.71
29383;BME280;16365;51.598;7.668;2023-05-11T06:20:01;100784.78;;;20.27;52.82
29383;BME280;16365;51.598;7.668;2023-05-11T06:22:27;100788.00;;;20.29;52.61
29383;BME280;16365;51.598;7.668;2023-05-11T06:24:54;100788.81;;;20.30;52.71
29383;BME280;16365;51.598;7.668;2023-05-11T06:27:20;100786.78;;;20.31;52.88
29383;BME280;16365;51.598;7.668;2023-05-11T06:29:47;100789.25;;;20.32;52.83
29383;BME280;16365;51.598;7.668;2023-05-11T06:32:13;100788.03;;;20.33;52.72
29383;BME280;16365;51.598;7.668;2023-05-11T06:34:40;100786.44;;;20.36;52.21
29383;BME280;16365;51.598;7.668;2023-05-11T06:37:06;100783.63;;;20.36;52.46
29383;BME280;16365;51.598;7.668;2023-05-11T06:39:36;100787.63;;;20.35;52.55
29383;BME280;16365;51.598;7.668;2023-05-11T06:42:03;100790.06;;;20.36;52.48
29383;BME280;16365;51.598;7.668;2023-05-11T06:44:33;100788.88;;;20.37;52.30
29383;BME280;16365;51.598;7.668;2023-05-11T06:47:00;100786.06;;;20.37;52.16
29383;BME280;16365;51.598;7.668;2023-05-11T06:49:29;100791.25;;;20.35;52.20
29383;BME280;16365;51.598;7.668;2023-05-11T06:51:55;100791.25;;;20.35;52.25
29383;BME280;16365;51.598;7.668;2023-05-11T06:54:21;100790.03;;;20.33;52.19
29383;BME280;16365;51.598;7.668;2023-05-11T06:56:48;100790.84;;;20.33;52.04
29383;BME280;16365;51.598;7.668;2023-05-11T06:59:14;100789.25;;;20.32;51.99
29383;BME280;16365;51.598;7.668;2023-05-11T07:01:41;100791.63;;;20.30;51.94
29383;BME280;16365;51.598;7.668;2023-05-11T07:04:10;100800.06;;;20.30;52.09
29383;BME280;16365;51.598;7.668;2023-05-11T07:06:36;100789.59;;;20.31;52.04
29383;BME280;16365;51.598;7.668;2023-05-11T07:09:03;100795.25;;;20.31;52.34
29383;BME280;16365;51.598;7.668;2023-05-11T07:11:30;100792.09;;;20.36;52.61
29383;BME280;16365;51.598;7.668;2023-05-11T07:13:56;100796.50;;;20.40;52.66
29383;BME280;16365;51.598;7.668;2023-05-11T07:16:23;100797.78;;;20.46;52.44
29383;BME280;16365;51.598;7.668;2023-05-11T07:18:49;100799.84;;;20.53;52.29
29383;BME280;16365;51.598;7.668;2023-05-11T07:21:16;100802.28;;;20.58;52.20
29383;BME280;16365;51.598;7.668;2023-05-11T07:23:43;100798.28;;;20.63;51.84
29383;BME280;16365;51.598;7.668;2023-05-11T07:26:10;100796.69;;;20.69;51.91
29383;BME280;16365;51.598;7.668;2023-05-11T07:28:37;100797.53;;;20.73;51.38
29383;BME280;16365;51.598;7.668;2023-05-11T07:31:04;100796.34;;;20.77;51.54
29383;BME280;16365;51.598;7.668;2023-05-11T07:33:30;100792.34;;;20.82;51.59
29383;BME280;16365;51.598;7.668;2023-05-11T07:35:59;100789.94;;;20.88;51.75
29383;BME280;16365;51.598;7.668;2023-05-11T07:38:26;100794.81;;;20.94;52.00
29383;BME280;16365;51.598;7.668;2023-05-11T07:40:53;100781.53;;;21.02;52.10
29383;BME280;16365;51.598;7.668;2023-05-11T07:43:19;100779.94;;;21.12;51.26
29383;BME280;16365;51.598;7.668;2023-05-11T07:45:46;100793.69;;;21.20;51.39
29383;BME280;16365;51.598;7.668;2023-05-11T07:48:13;100790.91;;;21.27;51.34
29383;BME280;16365;51.598;7.668;2023-05-11T07:50:40;100788.09;;;21.35;50.54
29383;BME280;16365;51.598;7.668;2023-05-11T07:53:08;100799.38;;;21.42;50.77
29383;BME280;16365;51.598;7.668;2023-05-11T07:55:35;100793.38;;;21.47;50.99
29383;BME280;16365;51.598;7.668;2023-05-11T07:58:01;100788.53;;;21.51;50.65
29383;BME280;16365;51.598;7.668;2023-05-11T08:00:28;100795.00;;;21.59;50.49
29383;BME280;16365;51.598;7.668;2023-05-11T08:02:54;100791.78;;;21.64;50.25
29383;BME280;16365;51.598;7.668;2023-05-11T08:05:27;100791.38;;;21.69;50.23
29383;BME280;16365;51.598;7.668;2023-05-11T08:07:53;100793.00;;;21.73;50.37
29383;BME280;16365;51.598;7.668;2023-05-11T08:10:21;100796.63;;;21.77;50.27
29383;BME280;16365;51.598;7.668;2023-05-11T08:12:48;100791.00;;;21.81;49.85
29383;BME280;16365;51.598;7.668;2023-05-11T08:15:14;100798.63;;;21.84;49.79
29383;BME280;16365;51.598;7.668;2023-05-11T08:17:40;100790.16;;;21.88;49.86
29383;BME280;16365;51.598;7.668;2023-05-11T08:20:09;100793.00;;;21.91;49.57
29383;BME280;16365;51.598;7.668;2023-05-11T08:22:35;100791.00;;;21.95;49.49
29383;BME280;16365;51.598;7.668;2023-05-11T08:25:02;100799.06;;;22.00;49.58
29383;BME280;16365;51.598;7.668;2023-05-11T08:27:29;100796.63;;;22.06;49.29
29383;BME280;16365;51.598;7.668;2023-05-11T08:29:55;100797.84;;;22.12;49.21
29383;BME280;16365;51.598;7.668;2023-05-11T08:32:23;100805.09;;;22.17;48.93
29383;BME280;16365;51.598;7.668;2023-05-11T08:34:51;100799.03;;;22.25;48.77
29383;BME280;16365;51.598;7.668;2023-05-11T08:37:18;100803.06;;;22.31;48.59
29383;BME280;16365;51.598;7.668;2023-05-11T08:39:44;100791.34;;;22.37;48.59
29383;BME280;16365;51.598;7.668;2023-05-11T08:42:16;100793.75;;;22.42;48.35
29383;BME280;16365;51.598;7.668;2023-05-11T08:44:43;100798.59;;;22.48;48.25
29383;BME280;16365;51.598;7.668;2023-05-11T08:47:10;100787.28;;;22.52;48.00
29383;BME280;16365;51.598;7.668;2023-05-11T08:49:50;100795.31;;;22.57;48.39
29383;BME280;16365;51.598;7.668;2023-05-11T08:52:18;100785.66;;;22.58;48.17
29383;BME280;16365;51.598;7.668;2023-05-11T08:54:45;100794.53;;;22.60;48.13
29383;BME280;16365;51.598;7.668;2023-05-11T08:57:12;100790.47;;;22.61;48.09
29383;BME280;16365;51.598;7.668;2023-05-11T08:59:43;100796.94;;;22.62;47.31
29383;BME280;16365;51.598;7.668;2023-05-11T09:02:13;100798.56;;;22.59;47.37
29383;BME280;16365;51.598;7.668;2023-05-11T09:04:43;100803.00;;;22.56;47.88
29383;BME280;16365;51.598;7.668;2023-05-11T09:07:14;100795.75;;;22.55;48.09
29383;BME280;16365;51.598;7.668;2023-05-11T09:09:43;100789.72;;;22.53;48.31
29383;BME280;16365;51.598;7.668;2023-05-11T09:12:10;100789.28;;;22.55;48.08
29383;BME280;16365;51.598;7.668;2023-05-11T09:14:37;100801.41;;;22.59;48.63
29383;BME280;16365;51.598;7.668;2023-05-11T09:17:04;100792.09;;;22.62;48.43
29383;BME280;16365;51.598;7.668;2023-05-11T09:19:30;100792.06;;;22.69;48.36
29383;BME280;16365;51.598;7.668;2023-05-11T09:21:58;100793.25;;;22.75;48.30
29383;BME280;16365;51.598;7.668;2023-05-11T09:24:27;100794.44;;;22.81;48.73
29383;BME280;16365;51.598;7.668;2023-05-11T09:27:07;100790.00;;;22.88;47.88
29383;BME280;16365;51.598;7.668;2023-05-11T09:29:34;100792.00;;;22.98;47.84
29383;BME280;16365;51.598;7.668;2023-05-11T09:32:03;100790.75;;;23.02;47.67
29383;BME280;16365;51.598;7.668;2023-05-11T09:34:29;100787.50;;;23.07;47.68
29383;BME280;16365;51.598;7.668;2023-05-11T09:36:56;100789.91;;;23.09;47.10
29383;BME280;16365;51.598;7.668;2023-05-11T09:39:34;100790.31;;;23.07;46.67
29383;BME280;16365;51.598;7.668;2023-05-11T09:42:20;100787.88;;;23.09;46.81
29383;BME280;16365;51.598;7.668;2023-05-11T09:44:47;100789.47;;;23.14;47.01
29383;BME280;16365;51.598;7.668;2023-05-11T09:47:16;100783.38;;;23.16;46.69
29383;BME280;16365;51.598;7.668;2023-05-11T09:49:43;100787.41;;;23.22;46.56
29383;BME280;16365;51.598;7.668;2023-05-11T09:52:12;100786.19;;;23.23;46.07
29383;BME280;16365;51.598;7.668;2023-05-11T09:54:40;100789.00;;;23.26;46.00
29383;BME280;16365;51.598;7.668;2023-05-11T09:57:26;100782.56;;;23.26;45.49
29383;BME280;16365;51.598;7.668;2023-05-11T09:59:55;100780.88;;;23.32;46.32
29383;BME280;16365;51.598;7.668;2023-05-11T10:02:29;100779.28;;;23.31;46.56
29383;BME280;16365;51.598;7.668;2023-05-11T10:04:58;100778.41;;;23.38;46.35
29383;BME280;16365;51.598;7.668;2023-05-11T10:09:57;100779.22;;;23.42;46.00
29383;BME280;16365;51.598;7.668;2023-05-11T10:12:24;100781.63;;;23.43;45.87
29383;BME280;16365;51.598;7.668;2023-05-11T10:14:54;100776.75;;;23.44;45.69
29383;BME280;16365;51.598;7.668;2023-05-11T10:17:21;100780.78;;;23.46;45.87
29383;BME280;16365;51.598;7.668;2023-05-11T10:19:49;100782.81;;;23.46;45.57
29383;BME280;16365;51.598;7.668;2023-05-11T10:22:17;100774.34;;;23.42;45.23
29383;BME280;16365;51.598;7.668;2023-05-11T10:24:44;100775.97;;;23.40;45.32
29383;BME280;16365;51.598;7.668;2023-05-11T10:27:12;100768.72;;;23.35;45.40
29383;BME280;16365;51.598;7.668;2023-05-11T10:29:41;100769.16;;;23.30;45.19
29383;BME280;16365;51.598;7.668;2023-05-11T10:32:09;100772.44;;;23.25;44.84
29383;BME280;16365;51.598;7.668;2023-05-11T10:34:36;100775.31;;;23.21;44.87
29383;BME280;16365;51.598;7.668;2023-05-11T10:37:05;100770.91;;;23.13;44.62
29383;BME280;16365;51.598;7.668;2023-05-11T10:39:36;100774.97;;;23.05;44.67
29383;BME280;16365;51.598;7.668;2023-05-11T10:42:24;100778.66;;;22.98;44.63
29383;BME280;16365;51.598;7.668;2023-05-11T10:53:45;100766.59;;;22.80;45.66
29383;BME280;16365;51.598;7.668;2023-05-11T10:59:07;100772.63;;;22.82;45.75
29383;BME280;16365;51.598;7.668;2023-05-11T11:01:39;100774.66;;;22.81;45.91
29383;BME280;16365;51.598;7.668;2023-05-11T11:04:11;100777.09;;;22.79;45.91
29383;BME280;16365;51.598;7.668;2023-05-11T11:06:40;100777.88;;;22.80;46.11
29383;BME280;16365;51.598;7.668;2023-05-11T11:09:07;100774.66;;;22.81;46.33
29383;BME280;16365;51.598;7.668;2023-05-11T11:11:38;100777.47;;;22.85;46.66
29383;BME280;16365;51.598;7.668;2023-05-11T11:14:06;100772.63;;;22.86;46.54
29383;BME280;16365;51.598;7.668;2023-05-11T11:16:38;100769.41;;;22.83;46.45
29383;BME280;16365;51.598;7.668;2023-05-11T11:21:57;100774.25;;;22.83;46.67
29383;BME280;16365;51.598;7.668;2023-05-11T11:24:42;100768.22;;;22.77;46.66
29383;BME280;16365;51.598;7.668;2023-05-11T11:27:09;100764.56;;;22.80;46.59
29383;BME280;16365;51.598;7.668;2023-05-11T11:29:36;100767.38;;;22.80;46.46
29383;BME280;16365;51.598;7.668;2023-05-11T11:34:45;100769.84;;;22.75;46.72
29383;BME280;16365;51.598;7.668;2023-05-11T11:37:12;100766.63;;;22.73;46.57
29383;BME280;16365;51.598;7.668;2023-05-11T11:42:14;100774.28;;;22.76;46.01
29383;BME280;16365;51.598;7.668;2023-05-11T11:44:42;100765.41;;;22.74;46.14
29383;BME280;16365;51.598;7.668;2023-05-11T11:49:45;100771.06;;;22.70;46.84
29383;BME280;16365;51.598;7.668;2023-05-11T11:52:13;100772.28;;;22.69;46.78
29383;BME280;16365;51.598;7.668;2023-05-11T11:54:58;100775.50;;;22.71;46.83
29383;BME280;16365;51.598;7.668;2023-05-11T12:00:10;100773.91;;;22.70;46.71
29383;BME280;16365;51.598;7.668;2023-05-11T12:02:42;100771.44;;;22.72;46.40
29383;BME280;16365;51.598;7.668;2023-05-11T12:05:15;100769.03;;;22.74;46.49
29383;BME280;16365;51.598;7.668;2023-05-11T12:07:49;100775.50;;;22.75;46.56
29383;BME280;16365;51.598;7.668;2023-05-11T12:10:21;100768.63;;;22.72;46.92
29383;BME280;16365;51.598;7.668;2023-05-11T12:12:50;100770.66;;;22.72;46.97
29383;BME280;16365;51.598;7.668;2023-05-11T12:15:26;100771.47;;;22.69;46.81
29383;BME280;16365;51.598;7.668;2023-05-11T12:17:54;100765.41;;;22.70;46.75
29383;BME280;16365;51.598;7.668;2023-05-11T12:20:22;100763.00;;;22.69;46.76
29383;BME280;16365;51.598;7.668;2023-05-11T12:22:49;100763.41;;;22.67;46.53
29383;BME280;16365;51.598;7.668;2023-05-11T12:25:16;100762.22;;;22.65;46.30
29383;BME280;16365;51.598;7.668;2023-05-11T12:27:54;100767.44;;;22.63;46.15
29383;BME280;16365;51.598;7.668;2023-05-11T12:30:33;100761.00;;;22.62;46.36
29383;BME280;16365;51.598;7.668;2023-05-11T12:33:00;100769.47;;;22.66;46.40
29383;BME280;16365;51.598;7.668;2023-05-11T12:35:29;100769.03;;;22.67;46.16
29383;BME280;16365;51.598;7.668;2023-05-11T12:37:57;100763.41;;;22.67;46.36
29383;BME280;16365;51.598;7.668;2023-05-11T12:40:25;100760.56;;;22.71;46.70
29383;BME280;16365;51.598;7.668;2023-05-11T12:42:54;100760.56;;;22.74;46.35
29383;BME280;16365;51.598;7.668;2023-05-11T12:45:21;100766.63;;;22.73;46.53
29383;BME280;16365;51.598;7.668;2023-05-11T12:47:55;100756.56;;;22.68;46.63
29383;BME280;16365;51.598;7.668;2023-05-11T12:50:23;100765.03;;;22.68;46.78
29383;BME280;16365;51.598;7.668;2023-05-11T12:52:50;100759.38;;;22.65;46.56
29383;BME280;16365;51.598;7.668;2023-05-11T12:55:27;100761.03;;;22.58;46.59
29383;BME280;16365;51.598;7.668;2023-05-11T13:00:35;100761.84;;;22.55;46.75
29383;BME280;16365;51.598;7.668;2023-05-11T13:03:01;100756.59;;;22.54;46.74
29383;BME280;16365;51.598;7.668;2023-05-11T13:05:29;100752.13;;;22.53;46.92
29383;BME280;16365;51.598;7.668;2023-05-11T13:08:00;100756.59;;;22.50;47.02
29383;BME280;16365;51.598;7.668;2023-05-11T13:10:27;100751.75;;;22.47;47.01
29383;BME280;16365;51.598;7.668;2023-05-11T13:12:55;100757.44;;;22.44;47.23
29383;BME280;16365;51.598;7.668;2023-05-11T13:15:23;100757.03;;;22.42;47.26
29383;BME280;16365;51.598;7.668;2023-05-11T13:17:58;100756.22;;;22.38;47.14
29383;BME280;16365;51.598;7.668;2023-05-11T13:20:29;100750.19;;;22.36;47.08
29383;BME280;16365;51.598;7.668;2023-05-11T13:23:13;100753.03;;;22.28;47.65
29383;BME280;16365;51.598;7.668;2023-05-11T13:28:15;100746.19;;;22.29;47.53
29383;BME280;16365;51.598;7.668;2023-05-11T13:30:43;100748.22;;;22.29;47.61
29383;BME280;16365;51.598;7.668;2023-05-11T13:33:09;100747.78;;;22.30;47.65
29383;BME280;16365;51.598;7.668;2023-05-11T13:35:40;100751.84;;;22.29;47.42
29383;BME280;16365;51.598;7.668;2023-05-11T13:38:10;100751.41;;;22.31;47.63
29383;BME280;16365;51.598;7.668;2023-05-11T13:40:38;100751.41;;;22.31;47.96
29383;BME280;16365;51.598;7.668;2023-05-11T13:43:06;100751.03;;;22.29;47.60